ICAO code: LHPR | IATA code: QGY | SITA: QGYAPXH | AFTN: LHPRZPZX

Időjárási adatok

METAR LHPR 110945Z AUTO 33009KT 280V020 CAVOK 27/16 Q1015 NOSIG=
TAF LHPR 110815Z 1109/1118 33009KT CAVOK BECMG 1111/1113 33024G38KT
9999 BKN030 BKN070 TEMPO 1111/1118 8000 SHRA BKN020CB=
Nem volt érdemleges időjárási jelenség az elmúlt órában
2020-07-11 09:50:00 UTC
Hőmérséklet
27.3 °C
 
Harmatpont
16.4 °C
 
Rel. páratartalom
51%
 
QNH
1014.9 hPa
 
Szélsebesség
6.0 m/s
Max
7.6 m/s
Szélirány
330°
 
Csapadék (1 óra)
0.0 mm
 
Látótávolság
20000 m
 
RVR
>1500 m RWY30
 
1. felhőréteg mennyisége
2 octa
 
1. felhőréteg alapja
2410 m